createdAt,value
2017-09-17T00:00:03.716Z,1000.53
2017-09-17T00:00:44.265Z,1000.53
2017-09-17T00:01:24.821Z,1000.59
2017-09-17T00:02:05.393Z,1000.55
2017-09-17T00:02:45.938Z,1000.62
2017-09-17T00:03:26.505Z,1000.6
2017-09-17T00:04:07.065Z,1000.66
2017-09-17T00:04:47.630Z,1000.64
2017-09-17T00:05:28.149Z,1000.66
2017-09-17T00:06:08.709Z,1000.61
2017-09-17T00:06:49.253Z,1000.69
2017-09-17T00:07:29.819Z,1000.67
2017-09-17T00:08:10.354Z,1000.69
2017-09-17T00:08:50.873Z,1000.66
2017-09-17T00:09:31.423Z,1000.7
2017-09-17T00:10:11.968Z,1000.66
2017-09-17T00:10:52.557Z,1000.69
2017-09-17T00:11:33.081Z,1000.67
2017-09-17T00:12:13.640Z,1000.68
2017-09-17T00:12:54.180Z,1000.69
2017-09-17T00:13:34.707Z,1000.72
2017-09-17T00:14:15.280Z,1000.67
2017-09-17T00:14:55.837Z,1000.72
2017-09-17T00:15:36.363Z,1000.71
2017-09-17T00:16:16.884Z,1000.73
2017-09-17T00:18:29.660Z,1000.7
2017-09-17T00:19:10.192Z,1000.73
2017-09-17T00:19:50.741Z,1000.72
2017-09-17T00:20:31.285Z,1000.72
2017-09-17T00:21:11.834Z,1000.71
2017-09-17T00:21:52.413Z,1000.67
2017-09-17T00:22:32.957Z,1000.69
2017-09-17T00:23:13.513Z,1000.69
2017-09-17T00:23:54.056Z,1000.69
2017-09-17T00:24:34.598Z,1000.66
2017-09-17T00:25:15.137Z,1000.69
2017-09-17T00:25:55.682Z,1000.7
2017-09-17T00:26:36.239Z,1000.68
2017-09-17T00:27:16.798Z,1000.7
2017-09-17T00:27:57.331Z,1000.72
2017-09-17T00:28:37.887Z,1000.71
2017-09-17T00:29:18.442Z,1000.71
2017-09-17T00:29:59.000Z,1000.7
2017-09-17T00:30:39.600Z,1000.67
2017-09-17T00:31:20.146Z,1000.68
2017-09-17T00:32:00.700Z,1000.67
2017-09-17T00:32:41.217Z,1000.71
2017-09-17T00:33:21.776Z,1000.66
2017-09-17T00:34:02.325Z,1000.66
2017-09-17T00:34:42.865Z,1000.7
2017-09-17T00:35:23.430Z,1000.67
2017-09-17T00:36:03.997Z,1000.64
2017-09-17T00:36:44.533Z,1000.63
2017-09-17T00:37:25.088Z,1000.64
2017-09-17T00:38:05.650Z,1000.65
2017-09-17T00:38:46.200Z,1000.67
2017-09-17T00:39:26.761Z,1000.69
2017-09-17T00:40:07.299Z,1000.63
2017-09-17T00:40:47.872Z,1000.67
2017-09-17T00:41:28.407Z,1000.67
2017-09-17T00:42:08.956Z,1000.67
2017-09-17T00:42:49.491Z,1000.65
2017-09-17T00:43:30.049Z,1000.67
2017-09-17T00:44:10.595Z,1000.69
2017-09-17T00:44:51.152Z,1000.67
2017-09-17T00:45:31.695Z,1000.75
2017-09-17T00:46:12.232Z,1000.76
2017-09-17T00:46:52.757Z,1000.71
2017-09-17T00:47:33.291Z,1000.67
2017-09-17T00:48:13.853Z,1000.71
2017-09-17T00:48:54.405Z,1000.68
2017-09-17T00:49:34.949Z,1000.74
2017-09-17T00:50:15.518Z,1000.72
2017-09-17T00:50:56.056Z,1000.71
2017-09-17T00:51:36.580Z,1000.73
2017-09-17T00:52:17.147Z,1000.73
2017-09-17T00:52:57.701Z,1000.71
2017-09-17T00:53:38.288Z,1000.75
2017-09-17T00:54:18.785Z,1000.78
2017-09-17T00:54:59.324Z,1000.72
2017-09-17T00:55:39.905Z,1000.74
2017-09-17T00:56:20.432Z,1000.77
2017-09-17T00:57:00.975Z,1000.77
2017-09-17T00:57:41.551Z,1000.73
2017-09-17T00:58:22.088Z,1000.72
2017-09-17T00:59:02.644Z,1000.74
2017-09-17T00:59:43.192Z,1000.72
2017-09-17T01:00:23.735Z,1000.7
2017-09-17T01:01:04.270Z,1000.7
2017-09-17T01:01:44.822Z,1000.69
2017-09-17T01:02:25.390Z,1000.7
2017-09-17T01:03:05.917Z,1000.72
2017-09-17T01:03:46.443Z,1000.7
2017-09-17T01:04:26.975Z,1000.69
2017-09-17T01:05:07.515Z,1000.67
2017-09-17T01:05:48.079Z,1000.67
2017-09-17T01:06:28.618Z,1000.68
2017-09-17T01:07:09.162Z,1000.68
2017-09-17T01:07:49.716Z,1000.68
2017-09-17T01:08:30.284Z,1000.68
2017-09-17T01:09:10.850Z,1000.71
2017-09-17T01:09:51.381Z,1000.68
2017-09-17T01:10:31.932Z,1000.65
2017-09-17T01:11:12.457Z,1000.69
2017-09-17T01:11:52.978Z,1000.68
2017-09-17T01:12:33.483Z,1000.75
2017-09-17T01:13:14.011Z,1000.78
2017-09-17T01:13:54.539Z,1000.71
2017-09-17T01:14:35.073Z,1000.76
2017-09-17T01:15:15.600Z,1000.8
2017-09-17T01:15:56.158Z,1000.79
2017-09-17T01:16:36.707Z,1000.77
2017-09-17T01:17:17.223Z,1000.79
2017-09-17T01:17:57.783Z,1000.81
2017-09-17T01:18:38.323Z,1000.77
2017-09-17T01:19:18.887Z,1000.82
2017-09-17T01:19:59.434Z,1000.76
2017-09-17T01:20:39.969Z,1000.81
2017-09-17T01:21:20.545Z,1000.76
2017-09-17T01:22:01.087Z,1000.73
2017-09-17T01:22:41.642Z,1000.76
2017-09-17T01:23:22.181Z,1000.8
2017-09-17T01:24:02.726Z,1000.81
2017-09-17T01:24:43.259Z,1000.75
2017-09-17T01:25:23.794Z,1000.81
2017-09-17T01:26:04.329Z,1000.81
2017-09-17T01:26:44.884Z,1000.78
2017-09-17T01:27:25.403Z,1000.78
2017-09-17T01:28:05.978Z,1000.77
2017-09-17T01:28:46.489Z,1000.77
2017-09-17T01:29:27.073Z,1000.78
2017-09-17T01:30:07.590Z,1000.82
2017-09-17T01:30:48.129Z,1000.77
2017-09-17T01:31:28.694Z,1000.81
2017-09-17T01:32:09.275Z,1000.75
2017-09-17T01:32:49.828Z,1000.77
2017-09-17T01:33:30.356Z,1000.71
2017-09-17T01:34:10.904Z,1000.72
2017-09-17T01:34:51.444Z,1000.72
2017-09-17T01:35:31.998Z,1000.74
2017-09-17T01:36:12.549Z,1000.75
2017-09-17T01:36:53.109Z,1000.75
2017-09-17T01:37:33.638Z,1000.76
2017-09-17T01:38:14.173Z,1000.78
2017-09-17T01:38:54.703Z,1000.75
2017-09-17T01:39:35.260Z,1000.72
2017-09-17T01:40:15.822Z,1000.78
2017-09-17T01:40:56.382Z,1000.76
2017-09-17T01:41:36.925Z,1000.76
2017-09-17T01:42:17.465Z,1000.78
2017-09-17T01:42:57.999Z,1000.76
2017-09-17T01:43:38.551Z,1000.76
2017-09-17T01:44:19.108Z,1000.75
2017-09-17T01:44:59.681Z,1000.74
2017-09-17T01:45:40.244Z,1000.74
2017-09-17T01:46:20.766Z,1000.75
2017-09-17T01:47:01.299Z,1000.75
2017-09-17T01:47:41.875Z,1000.79
2017-09-17T01:48:22.424Z,1000.77
2017-09-17T01:49:02.953Z,1000.74
2017-09-17T01:49:43.493Z,1000.74
2017-09-17T01:50:24.032Z,1000.74
2017-09-17T01:51:04.574Z,1000.73
2017-09-17T01:51:45.107Z,1000.7
2017-09-17T01:52:25.656Z,1000.68
2017-09-17T01:53:06.200Z,1000.72
2017-09-17T01:53:46.722Z,1000.73
2017-09-17T01:54:27.264Z,1000.74
2017-09-17T01:55:07.870Z,1000.72
2017-09-17T01:55:48.360Z,1000.7
2017-09-17T01:56:28.890Z,1000.73
2017-09-17T01:57:09.447Z,1000.73
2017-09-17T01:57:49.969Z,1000.74
2017-09-17T01:58:30.494Z,1000.76
2017-09-17T01:59:11.052Z,1000.78
2017-09-17T01:59:51.609Z,1000.73
2017-09-17T02:00:32.134Z,1000.76
2017-09-17T02:01:12.693Z,1000.73
2017-09-17T02:01:53.259Z,1000.74
2017-09-17T02:02:33.794Z,1000.73
2017-09-17T02:05:02.354Z,1000.73
2017-09-17T02:05:42.916Z,1000.72
2017-09-17T02:06:23.447Z,1000.68
2017-09-17T02:07:04.006Z,1000.65
2017-09-17T02:07:44.562Z,1000.7
2017-09-17T02:08:25.094Z,1000.71
2017-09-17T02:09:05.638Z,1000.65
2017-09-17T02:09:46.181Z,1000.69
2017-09-17T02:10:26.722Z,1000.7
2017-09-17T02:11:07.266Z,1000.69
2017-09-17T02:11:47.813Z,1000.71
2017-09-17T02:12:28.364Z,1000.66
2017-09-17T02:13:08.903Z,1000.67
2017-09-17T02:13:49.437Z,1000.68
2017-09-17T02:14:29.988Z,1000.69
2017-09-17T02:15:10.541Z,1000.67
2017-09-17T02:15:51.085Z,1000.69
2017-09-17T02:16:31.625Z,1000.67
2017-09-17T02:17:12.212Z,1000.66
2017-09-17T02:17:52.725Z,1000.67
2017-09-17T02:18:33.270Z,1000.73
2017-09-17T02:19:13.795Z,1000.67
2017-09-17T02:19:54.334Z,1000.7
2017-09-17T02:20:34.850Z,1000.71
2017-09-17T02:21:15.385Z,1000.67
2017-09-17T02:21:55.932Z,1000.69
2017-09-17T02:22:36.488Z,1000.69
2017-09-17T02:23:17.030Z,1000.67
2017-09-17T02:23:57.582Z,1000.7
2017-09-17T02:24:38.095Z,1000.66
2017-09-17T02:25:18.637Z,1000.71
2017-09-17T02:25:59.171Z,1000.7
2017-09-17T02:26:39.707Z,1000.73
2017-09-17T02:27:20.212Z,1000.78
2017-09-17T02:28:00.753Z,1000.76
2017-09-17T02:28:41.301Z,1000.74
2017-09-17T02:29:21.840Z,1000.77
2017-09-17T02:30:02.371Z,1000.79
2017-09-17T02:30:42.907Z,1000.75
2017-09-17T02:31:23.450Z,1000.78
2017-09-17T02:32:03.993Z,1000.75
2017-09-17T02:32:44.530Z,1000.74
2017-09-17T02:33:25.050Z,1000.76
2017-09-17T02:34:05.613Z,1000.78
2017-09-17T02:34:46.176Z,1000.74
2017-09-17T02:35:26.756Z,1000.74
2017-09-17T02:36:07.298Z,1000.77
2017-09-17T02:36:47.837Z,1000.77
2017-09-17T02:37:28.361Z,1000.76
2017-09-17T02:38:08.915Z,1000.75
2017-09-17T02:38:49.537Z,1000.79
2017-09-17T02:39:30.069Z,1000.83
2017-09-17T02:40:10.617Z,1000.79
2017-09-17T02:40:51.167Z,1000.78
2017-09-17T02:41:31.687Z,1000.76
2017-09-17T02:42:12.220Z,1000.78
2017-09-17T02:42:52.748Z,1000.78
2017-09-17T02:43:33.279Z,1000.75
2017-09-17T02:44:13.811Z,1000.78
2017-09-17T02:44:54.373Z,1000.72
2017-09-17T02:45:34.952Z,1000.77
2017-09-17T02:46:15.466Z,1000.74
2017-09-17T02:46:55.990Z,1000.76
2017-09-17T02:47:36.527Z,1000.77
2017-09-17T02:48:17.063Z,1000.76
2017-09-17T02:48:57.612Z,1000.76
2017-09-17T02:49:38.157Z,1000.75
2017-09-17T02:50:18.667Z,1000.79
2017-09-17T02:50:59.197Z,1000.77
2017-09-17T02:51:39.771Z,1000.73
2017-09-17T02:52:20.285Z,1000.77
2017-09-17T02:53:00.817Z,1000.75
2017-09-17T02:53:41.376Z,1000.75
2017-09-17T02:54:21.911Z,1000.72
2017-09-17T02:55:02.462Z,1000.74
2017-09-17T02:55:43.009Z,1000.73
2017-09-17T02:56:23.563Z,1000.79
2017-09-17T02:57:04.091Z,1000.74
2017-09-17T02:57:44.601Z,1000.75
2017-09-17T02:58:25.168Z,1000.75
2017-09-17T02:59:05.709Z,1000.72
2017-09-17T02:59:46.260Z,1000.73
2017-09-17T03:00:26.795Z,1000.72
2017-09-17T03:01:07.358Z,1000.72
2017-09-17T03:01:47.887Z,1000.72
2017-09-17T03:02:28.450Z,1000.73
2017-09-17T03:03:09.031Z,1000.74
2017-09-17T03:03:49.539Z,1000.71
2017-09-17T03:04:30.081Z,1000.71
2017-09-17T03:05:10.653Z,1000.74
2017-09-17T03:05:51.261Z,1000.75
2017-09-17T03:06:31.841Z,1000.75
2017-09-17T03:07:12.311Z,1000.71
2017-09-17T03:07:52.829Z,1000.7
2017-09-17T03:08:33.373Z,1000.72
2017-09-17T03:09:13.946Z,1000.76
2017-09-17T03:09:54.494Z,1000.78
2017-09-17T03:10:35.079Z,1000.77
2017-09-17T03:11:15.647Z,1000.77
2017-09-17T03:11:56.182Z,1000.74
2017-09-17T03:12:36.718Z,1000.73
2017-09-17T03:13:17.250Z,1000.73
2017-09-17T03:13:57.806Z,1000.72
2017-09-17T03:14:38.384Z,1000.74
2017-09-17T03:15:18.928Z,1000.74
2017-09-17T03:15:59.444Z,1000.75
2017-09-17T03:16:39.968Z,1000.68
2017-09-17T03:17:20.497Z,1000.69
2017-09-17T03:18:01.035Z,1000.68
2017-09-17T03:18:41.593Z,1000.67
2017-09-17T03:19:22.120Z,1000.71
2017-09-17T03:20:02.645Z,1000.71
2017-09-17T03:20:43.180Z,1000.71
2017-09-17T03:21:23.679Z,1000.7
2017-09-17T03:22:04.213Z,1000.7
2017-09-17T03:22:44.737Z,1000.7
2017-09-17T03:23:25.309Z,1000.74
2017-09-17T03:24:05.841Z,1000.69
2017-09-17T03:24:46.406Z,1000.69
2017-09-17T03:25:26.948Z,1000.68
2017-09-17T03:26:07.552Z,1000.71
2017-09-17T03:26:48.062Z,1000.67
2017-09-17T03:27:28.608Z,1000.7
2017-09-17T03:28:09.165Z,1000.65
2017-09-17T03:28:49.713Z,1000.69
2017-09-17T03:29:30.273Z,1000.65
2017-09-17T03:30:10.811Z,1000.69
2017-09-17T03:30:51.348Z,1000.63
2017-09-17T03:31:31.890Z,1000.67
2017-09-17T03:32:12.438Z,1000.61
2017-09-17T03:32:52.973Z,1000.62
2017-09-17T03:33:33.509Z,1000.63
2017-09-17T03:34:14.033Z,1000.66
2017-09-17T03:34:54.590Z,1000.64
2017-09-17T03:35:35.160Z,1000.66
2017-09-17T03:36:15.669Z,1000.62
2017-09-17T03:36:56.213Z,1000.65
2017-09-17T03:37:36.762Z,1000.67
2017-09-17T03:38:17.304Z,1000.64
2017-09-17T03:38:57.835Z,1000.64
2017-09-17T03:39:38.396Z,1000.66
2017-09-17T03:40:18.947Z,1000.64
2017-09-17T03:40:59.525Z,1000.67
2017-09-17T03:41:40.078Z,1000.67
2017-09-17T03:42:20.634Z,1000.67
2017-09-17T03:43:01.181Z,1000.72
2017-09-17T03:43:41.737Z,1000.71
2017-09-17T03:44:22.271Z,1000.66
2017-09-17T03:45:02.821Z,1000.68
2017-09-17T03:45:43.348Z,1000.69
2017-09-17T03:46:23.878Z,1000.74
2017-09-17T03:47:04.434Z,1000.69
2017-09-17T03:47:44.961Z,1000.67
2017-09-17T03:48:25.494Z,1000.7
2017-09-17T03:49:06.036Z,1000.71
2017-09-17T03:49:46.590Z,1000.71
2017-09-17T03:50:27.122Z,1000.68
2017-09-17T03:51:07.684Z,1000.7
2017-09-17T03:51:48.203Z,1000.74
2017-09-17T03:52:28.756Z,1000.72
2017-09-17T03:53:09.308Z,1000.72
2017-09-17T03:53:49.847Z,1000.7
2017-09-17T03:54:30.397Z,1000.72
2017-09-17T03:55:10.956Z,1000.72
2017-09-17T03:55:51.512Z,1000.76
2017-09-17T03:56:32.042Z,1000.75
2017-09-17T03:57:12.560Z,1000.75
2017-09-17T03:57:53.126Z,1000.79
2017-09-17T03:58:33.652Z,1000.78
2017-09-17T03:59:14.243Z,1000.76
2017-09-17T03:59:54.748Z,1000.77
2017-09-17T04:00:35.329Z,1000.79
2017-09-17T04:01:15.847Z,1000.75
2017-09-17T04:01:56.400Z,1000.76
2017-09-17T04:02:36.935Z,1000.76
2017-09-17T04:03:17.528Z,1000.72
2017-09-17T04:03:58.019Z,1000.77
2017-09-17T04:04:38.566Z,1000.78
2017-09-17T04:05:19.116Z,1000.71
2017-09-17T04:05:59.679Z,1000.73
2017-09-17T04:06:40.231Z,1000.72
2017-09-17T04:07:20.774Z,1000.75
2017-09-17T04:08:01.289Z,1000.75
2017-09-17T04:08:41.823Z,1000.75
2017-09-17T04:09:22.406Z,1000.75
2017-09-17T04:10:02.953Z,1000.75
2017-09-17T04:10:43.502Z,1000.73
2017-09-17T04:11:24.043Z,1000.75
2017-09-17T04:12:04.578Z,1000.72
2017-09-17T04:12:45.138Z,1000.75
2017-09-17T04:13:25.657Z,1000.73
2017-09-17T04:14:06.205Z,1000.71
2017-09-17T04:14:46.745Z,1000.72
2017-09-17T04:15:27.275Z,1000.72
2017-09-17T04:16:07.831Z,1000.7
2017-09-17T04:16:48.361Z,1000.68
2017-09-17T04:17:28.915Z,1000.73
2017-09-17T04:18:09.446Z,1000.75
2017-09-17T04:18:49.994Z,1000.74
2017-09-17T04:19:30.537Z,1000.73
2017-09-17T04:20:11.078Z,1000.76
2017-09-17T04:20:51.626Z,1000.76
2017-09-17T04:21:32.176Z,1000.73
2017-09-17T04:22:12.689Z,1000.77
2017-09-17T04:22:53.227Z,1000.8
2017-09-17T04:23:33.773Z,1000.76
2017-09-17T04:24:14.336Z,1000.82
2017-09-17T04:24:54.886Z,1000.85
2017-09-17T04:25:35.434Z,1000.84
2017-09-17T04:26:15.971Z,1000.88
2017-09-17T04:26:56.527Z,1000.79
2017-09-17T04:27:37.085Z,1000.86
2017-09-17T04:28:17.638Z,1000.81
2017-09-17T04:28:58.190Z,1000.83
2017-09-17T04:29:38.736Z,1000.83
2017-09-17T04:30:19.319Z,1000.84
2017-09-17T04:30:59.845Z,1000.84
2017-09-17T04:31:40.383Z,1000.83
2017-09-17T04:32:20.952Z,1000.85
2017-09-17T04:33:01.505Z,1000.87
2017-09-17T04:33:42.060Z,1000.85
2017-09-17T04:34:22.591Z,1000.82
2017-09-17T04:35:03.130Z,1000.89
2017-09-17T04:35:43.685Z,1000.85
2017-09-17T04:36:24.258Z,1000.86
2017-09-17T04:37:04.787Z,1000.84
2017-09-17T04:37:45.317Z,1000.83
2017-09-17T04:38:25.885Z,1000.86
2017-09-17T04:39:06.425Z,1000.86
2017-09-17T04:39:46.983Z,1000.87
2017-09-17T04:40:27.485Z,1000.89
2017-09-17T04:41:08.024Z,1000.89
2017-09-17T04:41:48.601Z,1000.89
2017-09-17T04:42:29.115Z,1000.9
2017-09-17T04:43:09.647Z,1000.9
2017-09-17T04:43:50.217Z,1000.87
2017-09-17T04:44:30.734Z,1000.95
2017-09-17T04:45:11.306Z,1000.92
2017-09-17T04:45:51.837Z,1000.89
2017-09-17T04:46:32.385Z,1000.92
2017-09-17T04:47:12.915Z,1000.93
2017-09-17T04:47:53.460Z,1000.94
2017-09-17T04:48:33.996Z,1000.95
2017-09-17T04:49:14.550Z,1000.97
2017-09-17T04:49:55.102Z,1000.91
2017-09-17T04:50:35.614Z,1000.94
2017-09-17T04:51:16.174Z,1000.94
2017-09-17T04:51:56.727Z,1000.93
2017-09-17T04:52:37.238Z,1000.98
2017-09-17T04:53:17.792Z,1000.97
2017-09-17T04:53:58.346Z,1000.96
2017-09-17T04:54:38.868Z,1000.96
2017-09-17T04:55:19.428Z,1000.98
2017-09-17T04:55:59.982Z,1001
2017-09-17T04:56:40.514Z,1000.98
2017-09-17T04:57:21.065Z,1001.02
2017-09-17T04:58:01.593Z,1001.03
2017-09-17T04:58:42.138Z,1001
2017-09-17T04:59:22.687Z,1001.06
2017-09-17T05:00:03.234Z,1001.02
2017-09-17T05:00:43.733Z,1001.02
2017-09-17T05:02:57.537Z,1001
2017-09-17T05:03:38.102Z,1001.06
2017-09-17T05:04:18.609Z,1001.06
2017-09-17T05:04:59.164Z,1001.03
2017-09-17T05:05:39.706Z,1001.06
2017-09-17T05:06:20.232Z,1001.07
2017-09-17T05:07:00.776Z,1001.08
2017-09-17T05:07:41.332Z,1001.09
2017-09-17T05:08:21.870Z,1001.11
2017-09-17T05:09:02.413Z,1001.1
2017-09-17T05:09:42.928Z,1001.11
2017-09-17T05:10:23.488Z,1001.12
2017-09-17T05:11:04.020Z,1001.16
2017-09-17T05:11:44.568Z,1001.21
2017-09-17T05:12:25.107Z,1001.13
2017-09-17T05:13:05.627Z,1001.12
2017-09-17T05:13:46.187Z,1001.15
2017-09-17T05:14:26.722Z,1001.16
2017-09-17T05:15:07.221Z,1001.17
2017-09-17T05:15:47.787Z,1001.17
2017-09-17T05:16:28.305Z,1001.12
2017-09-17T05:17:08.876Z,1001.18
2017-09-17T05:17:49.382Z,1001.21
2017-09-17T05:18:29.938Z,1001.18
2017-09-17T05:19:10.437Z,1001.2
2017-09-17T05:19:51.010Z,1001.2
2017-09-17T05:20:31.523Z,1001.17
2017-09-17T05:21:12.076Z,1001.15
2017-09-17T05:21:52.626Z,1001.17
2017-09-17T05:22:33.164Z,1001.21
2017-09-17T05:23:13.727Z,1001.2
2017-09-17T05:23:54.273Z,1001.2
2017-09-17T05:24:34.820Z,1001.21
2017-09-17T05:25:15.369Z,1001.23
2017-09-17T05:25:55.926Z,1001.22
2017-09-17T05:26:36.465Z,1001.26
2017-09-17T05:27:17.034Z,1001.27
2017-09-17T05:27:57.544Z,1001.25
2017-09-17T05:28:38.147Z,1001.32
2017-09-17T05:29:18.684Z,1001.28
2017-09-17T05:29:59.270Z,1001.28
2017-09-17T05:30:39.795Z,1001.32
2017-09-17T05:31:20.338Z,1001.28
2017-09-17T05:32:00.876Z,1001.29
2017-09-17T05:32:41.414Z,1001.28
2017-09-17T05:33:21.925Z,1001.27
2017-09-17T05:34:02.464Z,1001.3
2017-09-17T05:34:42.975Z,1001.27
2017-09-17T05:35:23.510Z,1001.27
2017-09-17T05:36:04.045Z,1001.3
2017-09-17T05:36:44.517Z,1001.27
2017-09-17T05:37:25.076Z,1001.27
2017-09-17T05:38:05.603Z,1001.27
2017-09-17T05:38:46.149Z,1001.27
2017-09-17T05:39:26.703Z,1001.26
2017-09-17T05:40:07.222Z,1001.27
2017-09-17T05:40:47.754Z,1001.28
2017-09-17T05:41:28.290Z,1001.27
2017-09-17T05:42:08.839Z,1001.28
2017-09-17T05:42:49.383Z,1001.29
2017-09-17T05:43:29.919Z,1001.25
2017-09-17T05:44:10.470Z,1001.28
2017-09-17T05:44:51.016Z,1001.3
2017-09-17T05:45:31.577Z,1001.34
2017-09-17T05:46:12.087Z,1001.31
2017-09-17T05:46:52.625Z,1001.35
2017-09-17T05:47:33.173Z,1001.36
2017-09-17T05:48:13.718Z,1001.3
2017-09-17T05:48:54.254Z,1001.31
2017-09-17T05:49:34.798Z,1001.32
2017-09-17T05:50:15.343Z,1001.31
2017-09-17T05:50:56.476Z,1001.31
2017-09-17T05:51:37.041Z,1001.34
2017-09-17T05:52:17.565Z,1001.33
2017-09-17T05:52:58.120Z,1001.34
2017-09-17T05:53:38.653Z,1001.37
2017-09-17T05:54:19.201Z,1001.32
2017-09-17T05:54:59.777Z,1001.3
2017-09-17T05:55:40.315Z,1001.36
2017-09-17T05:56:20.879Z,1001.34
2017-09-17T05:57:01.399Z,1001.35
2017-09-17T05:57:41.942Z,1001.37
2017-09-17T05:58:22.510Z,1001.35
2017-09-17T05:59:03.077Z,1001.41
2017-09-17T05:59:43.616Z,1001.39
2017-09-17T06:00:24.158Z,1001.33
2017-09-17T06:01:04.705Z,1001.37
2017-09-17T06:01:45.232Z,1001.38
2017-09-17T06:02:25.766Z,1001.35
2017-09-17T06:03:06.293Z,1001.4
2017-09-17T06:03:46.816Z,1001.37
2017-09-17T06:04:27.372Z,1001.41
2017-09-17T06:05:07.915Z,1001.4
2017-09-17T06:05:48.472Z,1001.42
2017-09-17T06:06:29.008Z,1001.42
2017-09-17T06:07:09.564Z,1001.4
2017-09-17T06:07:50.098Z,1001.41
2017-09-17T06:08:30.668Z,1001.42
2017-09-17T06:09:11.169Z,1001.4
2017-09-17T06:09:51.677Z,1001.4
2017-09-17T06:10:32.209Z,1001.43
2017-09-17T06:11:12.754Z,1001.52
2017-09-17T06:11:53.324Z,1001.45
2017-09-17T06:12:33.907Z,1001.47
2017-09-17T06:13:14.469Z,1001.42
2017-09-17T06:13:55.013Z,1001.39
2017-09-17T06:14:35.560Z,1001.46
2017-09-17T06:15:16.073Z,1001.45
2017-09-17T06:15:56.648Z,1001.44
2017-09-17T06:16:37.217Z,1001.47
2017-09-17T06:17:17.760Z,1001.43
2017-09-17T06:17:58.345Z,1001.44
2017-09-17T06:18:38.891Z,1001.46
2017-09-17T06:19:19.427Z,1001.44
2017-09-17T06:19:59.948Z,1001.43
2017-09-17T06:20:40.462Z,1001.43
2017-09-17T06:21:21.045Z,1001.5
2017-09-17T06:22:01.535Z,1001.51
2017-09-17T06:22:42.097Z,1001.5
2017-09-17T06:23:22.634Z,1001.52
2017-09-17T06:24:03.185Z,1001.52
2017-09-17T06:24:43.741Z,1001.51
2017-09-17T06:25:24.288Z,1001.49
2017-09-17T06:26:04.819Z,1001.51
2017-09-17T06:26:45.380Z,1001.49
2017-09-17T06:27:25.897Z,1001.47
2017-09-17T06:28:06.450Z,1001.52
2017-09-17T06:28:46.960Z,1001.51
2017-09-17T06:29:27.526Z,1001.47
2017-09-17T06:30:08.047Z,1001.49
2017-09-17T06:30:48.604Z,1001.52
2017-09-17T06:31:29.135Z,1001.53
2017-09-17T06:32:09.685Z,1001.56
2017-09-17T06:32:50.260Z,1001.55
2017-09-17T06:33:30.796Z,1001.59
2017-09-17T06:34:11.343Z,1001.57
2017-09-17T06:34:51.832Z,1001.55
2017-09-17T06:35:32.405Z,1001.6
2017-09-17T06:36:12.929Z,1001.58
2017-09-17T06:36:53.498Z,1001.57
2017-09-17T06:37:33.991Z,1001.53
2017-09-17T06:38:14.583Z,1001.58
2017-09-17T06:38:55.108Z,1001.56
2017-09-17T06:39:35.665Z,1001.59
2017-09-17T06:40:16.207Z,1001.56
2017-09-17T06:40:56.777Z,1001.56
2017-09-17T06:41:37.372Z,1001.6
2017-09-17T06:42:17.907Z,1001.6
2017-09-17T06:42:58.430Z,1001.63
2017-09-17T06:43:38.967Z,1001.63
2017-09-17T06:44:19.513Z,1001.63
2017-09-17T06:45:00.050Z,1001.64
2017-09-17T06:45:40.605Z,1001.62
2017-09-17T06:46:21.151Z,1001.61
2017-09-17T06:47:01.701Z,1001.58
2017-09-17T06:47:42.238Z,1001.57
2017-09-17T06:48:22.797Z,1001.56
2017-09-17T06:49:03.336Z,1001.56
2017-09-17T06:49:43.872Z,1001.59
2017-09-17T06:50:24.393Z,1001.59
2017-09-17T06:51:04.934Z,1001.61
2017-09-17T06:51:45.507Z,1001.6
2017-09-17T06:52:26.089Z,1001.6
2017-09-17T06:53:06.598Z,1001.6
2017-09-17T06:53:47.120Z,1001.65
2017-09-17T06:54:27.645Z,1001.62
2017-09-17T06:55:08.193Z,1001.65
2017-09-17T06:55:48.746Z,1001.67
2017-09-17T06:56:29.305Z,1001.63
2017-09-17T06:57:09.826Z,1001.68
2017-09-17T06:57:50.337Z,1001.7
2017-09-17T06:58:30.876Z,1001.64
2017-09-17T06:59:11.427Z,1001.69
2017-09-17T06:59:51.953Z,1001.71
2017-09-17T07:00:32.509Z,1001.7
2017-09-17T07:01:14.159Z,1001.73
2017-09-17T07:01:56.059Z,1001.72
2017-09-17T07:02:35.261Z,1001.7
2017-09-17T07:03:15.755Z,1001.72
2017-09-17T07:03:56.313Z,1001.73
2017-09-17T07:04:36.875Z,1001.73
2017-09-17T07:05:17.424Z,1001.74
2017-09-17T07:05:58.020Z,1001.71
2017-09-17T07:06:38.556Z,1001.77
2017-09-17T07:07:19.108Z,1001.75
2017-09-17T07:07:59.686Z,1001.75
2017-09-17T07:08:40.230Z,1001.8
2017-09-17T07:09:20.757Z,1001.81
2017-09-17T07:10:01.321Z,1001.84
2017-09-17T07:10:41.899Z,1001.82
2017-09-17T07:11:22.467Z,1001.84
2017-09-17T07:12:02.997Z,1001.81
2017-09-17T07:12:43.551Z,1001.82
2017-09-17T07:13:24.093Z,1001.84
2017-09-17T07:14:04.680Z,1001.87
2017-09-17T07:14:45.221Z,1001.86
2017-09-17T07:15:25.768Z,1001.91
2017-09-17T07:16:06.337Z,1001.9
2017-09-17T07:16:46.882Z,1001.87
2017-09-17T07:17:27.409Z,1001.88
2017-09-17T07:18:07.946Z,1001.91
2017-09-17T07:18:48.504Z,1001.92
2017-09-17T07:19:29.114Z,1001.89
2017-09-17T07:20:09.672Z,1001.86
2017-09-17T07:20:50.141Z,1001.9
2017-09-17T07:21:30.694Z,1001.94
2017-09-17T07:22:11.264Z,1001.94
2017-09-17T07:22:51.828Z,1001.91
2017-09-17T07:23:32.339Z,1001.89
2017-09-17T07:24:12.884Z,1001.89
2017-09-17T07:24:53.438Z,1001.89
2017-09-17T07:25:34.067Z,1001.9
2017-09-17T07:26:14.496Z,1001.91
2017-09-17T07:26:55.096Z,1001.94
2017-09-17T07:27:35.607Z,1001.87
2017-09-17T07:28:16.125Z,1001.92
2017-09-17T07:28:56.636Z,1001.86
2017-09-17T07:29:37.231Z,1001.94
2017-09-17T07:30:17.790Z,1001.89
2017-09-17T07:30:58.339Z,1001.92
2017-09-17T07:31:38.940Z,1001.87
2017-09-17T07:32:19.426Z,1001.94
2017-09-17T07:32:59.995Z,1001.95
2017-09-17T07:33:40.500Z,1001.91
2017-09-17T07:34:21.054Z,1001.92
2017-09-17T07:35:01.591Z,1001.96
2017-09-17T07:35:42.141Z,1001.97
2017-09-17T07:36:22.707Z,1001.96
2017-09-17T07:37:03.243Z,1001.98
2017-09-17T07:37:43.795Z,1001.97
2017-09-17T07:38:24.351Z,1001.96
2017-09-17T07:39:04.850Z,1001.96
2017-09-17T07:39:45.417Z,1001.94
2017-09-17T07:40:25.961Z,1001.92
2017-09-17T07:41:06.459Z,1001.9
2017-09-17T07:41:47.004Z,1001.97
2017-09-17T07:42:27.553Z,1001.91
2017-09-17T07:43:08.058Z,1001.93
2017-09-17T07:43:48.631Z,1001.95
2017-09-17T07:44:29.115Z,1001.92
2017-09-17T07:45:09.674Z,1001.91
2017-09-17T07:45:50.235Z,1001.9
2017-09-17T07:46:30.785Z,1001.88
2017-09-17T07:47:11.391Z,1001.89
2017-09-17T07:47:51.949Z,1001.88
2017-09-17T07:48:32.452Z,1001.89
2017-09-17T07:49:12.973Z,1001.91
2017-09-17T07:49:53.509Z,1001.92
2017-09-17T07:50:34.042Z,1001.91
2017-09-17T07:51:14.635Z,1001.92
2017-09-17T07:51:55.141Z,1001.9
2017-09-17T07:52:35.729Z,1001.94
2017-09-17T07:53:16.298Z,1001.98
2017-09-17T07:53:56.876Z,1001.96
2017-09-17T07:54:37.414Z,1001.93
2017-09-17T07:55:17.947Z,1001.97
2017-09-17T07:55:58.468Z,1002.04
2017-09-17T07:56:39.052Z,1001.95
2017-09-17T07:57:19.537Z,1001.99
2017-09-17T07:58:00.079Z,1001.95
2017-09-17T07:58:40.664Z,1001.96
2017-09-17T07:59:21.175Z,1001.97
2017-09-17T08:00:01.719Z,1001.96
2017-09-17T08:00:42.224Z,1001.96
2017-09-17T08:01:22.764Z,1001.97
2017-09-17T08:02:03.322Z,1001.95
2017-09-17T08:02:43.809Z,1001.98
2017-09-17T08:03:24.392Z,1001.98
2017-09-17T08:04:04.931Z,1001.97
2017-09-17T08:04:45.444Z,1001.99
2017-09-17T08:05:26.021Z,1002.01
2017-09-17T08:06:06.570Z,1001.98
2017-09-17T08:06:47.100Z,1001.97
2017-09-17T08:07:27.662Z,1001.95
2017-09-17T08:08:08.203Z,1001.99
2017-09-17T08:08:48.762Z,1002.03
2017-09-17T08:09:29.286Z,1002.02
2017-09-17T08:10:09.836Z,1002.05
2017-09-17T08:10:50.329Z,1002.02
2017-09-17T08:11:30.942Z,1002.01
2017-09-17T08:12:11.476Z,1002.03
2017-09-17T08:12:51.999Z,1002.06
2017-09-17T08:13:32.568Z,1002.05
2017-09-17T08:14:13.914Z,1002.03
2017-09-17T08:14:53.721Z,1002.09
2017-09-17T08:15:34.223Z,1002.02
2017-09-17T08:16:14.706Z,1002.03
2017-09-17T08:16:55.312Z,1002.03